Time;durP1;ratioP1;P1;durP2;ratioP2;P2;SDS_P1;SDS_P2;PMS_P1;PMS_P2;Temp;Humidity;BMP_temperature;BMP_pressure;BME280_temperature;BME280_humidity;BME280_pressure;Samples;Min_cycle;Max_cycle;Signal;HPM_P1;HPM_P2
2023/04/18 00:00:43;;;;;;;15.43;11.05;;;;;;;8.79;83.75;102713.81;5023727;28;20196;-86
2023/04/18 00:03:09;;;;;;;17.67;10.75;;;;;;;8.86;82.86;102716.16;5021409;28;20021;-86
2023/04/18 00:05:35;;;;;;;18.98;10.55;;;;;;;8.93;83.03;102710.91;5038533;28;20028;-86
2023/04/18 00:08:01;;;;;;;20.17;10.88;;;;;;;8.87;82.67;102706.63;5034088;28;20021;-86
2023/04/18 00:10:26;;;;;;;16.20;10.65;;;;;;;8.91;83.14;102705.66;5019593;28;20097;-86
2023/04/18 00:12:51;;;;;;;17.67;11.05;;;;;;;8.91;81.84;102710.41;5029695;28;20052;-86
2023/04/18 00:15:17;;;;;;;21.98;10.70;;;;;;;8.87;83.29;102704.63;5027099;28;20025;-86
2023/04/18 00:17:42;;;;;;;15.52;10.32;;;;;;;8.70;84.79;102708.19;5016754;28;20119;-86
2023/04/18 00:20:11;;;;;;;18.67;11.18;;;;;;;8.78;84.30;102694.59;5030475;28;20481;-87
2023/04/18 00:22:41;;;;;;;19.40;11.40;;;;;;;8.87;83.47;102706.63;5033153;28;20649;-87
2023/04/18 00:25:08;;;;;;;18.52;11.35;;;;;;;8.80;82.89;102706.25;5040663;28;20140;-87
2023/04/18 00:27:34;;;;;;;18.90;11.93;;;;;;;8.79;82.81;102707.41;5024757;28;20156;-86
2023/04/18 00:29:59;;;;;;;19.67;11.73;;;;;;;8.73;83.29;102703.94;5037184;28;20041;-87
2023/04/18 00:32:25;;;;;;;18.38;11.73;;;;;;;8.64;82.44;102712.25;5037021;28;20044;-87
2023/04/18 00:34:50;;;;;;;18.25;10.88;;;;;;;8.52;83.87;102704.47;5035208;28;20028;-86
2023/04/18 00:37:15;;;;;;;20.73;11.40;;;;;;;8.48;83.22;102697.06;5033358;28;20029;-87
2023/04/18 00:39:41;;;;;;;16.58;10.80;;;;;;;8.55;82.76;102692.66;5032189;28;20381;-86
2023/04/18 00:42:06;;;;;;;18.55;11.20;;;;;;;8.42;83.04;102687.19;5023911;28;20510;-86
2023/04/18 00:44:31;;;;;;;15.00;11.75;;;;;;;8.48;81.49;102688.69;5017531;28;20110;-86
2023/04/18 00:46:57;;;;;;;18.38;11.40;;;;;;;8.44;81.32;102690.47;5034703;28;20041;-86
2023/04/18 00:49:23;;;;;;;17.58;12.65;;;;;;;8.51;82.08;102685.25;5038207;28;20059;-86
2023/04/18 00:51:49;;;;;;;17.55;11.23;;;;;;;8.52;82.77;102692.50;5035802;28;20040;-86
2023/04/18 00:54:17;;;;;;;19.52;11.85;;;;;;;8.56;82.47;102696.28;5035631;28;20128;-87
2023/04/18 00:56:44;;;;;;;18.05;12.05;;;;;;;8.50;82.44;102680.81;5035528;28;20053;-86
2023/04/18 00:59:10;;;;;;;15.95;10.93;;;;;;;8.50;81.94;102689.19;5034019;28;20095;-86
2023/04/18 01:01:36;;;;;;;18.63;11.35;;;;;;;8.41;82.56;102691.09;5022196;28;20024;-86
2023/04/18 01:04:01;;;;;;;20.80;11.65;;;;;;;8.38;83.03;102686.13;5035661;28;20040;-87
2023/04/18 01:06:28;;;;;;;17.65;10.32;;;;;;;8.37;82.68;102685.31;5024133;28;20032;-87
2023/04/18 01:08:55;;;;;;;17.10;13.38;;;;;;;8.35;82.33;102682.84;5020840;28;20047;-86
2023/04/18 01:11:20;;;;;;;16.02;11.07;;;;;;;8.15;81.71;102683.34;5033411;28;20063;-87
2023/04/18 01:14:05;;;;;;;22.35;11.77;;;;;;;8.18;82.34;102688.31;5022419;28;20045;-86
2023/04/18 01:16:32;;;;;;;17.42;11.95;;;;;;;8.28;82.18;102681.63;5019014;28;20021;-87
2023/04/18 01:18:58;;;;;;;17.77;11.48;;;;;;;8.08;82.85;102678.22;5017471;28;20255;-86
2023/04/18 01:21:23;;;;;;;14.93;11.30;;;;;;;7.89;82.21;102672.81;5019428;28;20045;-86
2023/04/18 01:23:50;;;;;;;16.33;11.45;;;;;;;7.93;82.71;102673.84;5034533;28;20119;-86
2023/04/18 01:26:15;;;;;;;20.45;12.00;;;;;;;8.07;83.40;102679.34;5036650;28;20047;-87
2023/04/18 01:28:41;;;;;;;20.70;12.32;;;;;;;8.12;82.32;102673.66;5031179;28;20037;-86
2023/04/18 01:31:06;;;;;;;18.45;12.32;;;;;;;8.13;81.28;102664.13;5033550;28;20512;-86
2023/04/18 01:33:31;;;;;;;19.85;12.10;;;;;;;7.94;83.56;102672.69;5038024;28;20024;-87
2023/04/18 01:35:57;;;;;;;19.83;11.70;;;;;;;7.76;83.41;102668.13;5039739;28;20028;-86
2023/04/18 01:38:22;;;;;;;17.35;11.00;;;;;;;7.78;81.28;102668.63;5033775;28;22323;-86
2023/04/18 01:40:48;;;;;;;16.83;11.43;;;;;;;7.91;83.24;102676.13;5021905;28;20048;-87
2023/04/18 01:43:13;;;;;;;18.42;11.65;;;;;;;7.73;82.66;102663.97;5041200;28;20120;-86
2023/04/18 01:45:39;;;;;;;17.90;11.85;;;;;;;7.86;83.10;102665.09;5024446;28;20033;-86
2023/04/18 01:48:05;;;;;;;19.98;11.25;;;;;;;7.88;82.74;102660.00;5027910;28;20462;-86
2023/04/18 01:50:30;;;;;;;20.70;12.30;;;;;;;7.72;82.82;102667.13;5024304;28;20021;-86
2023/04/18 01:52:55;;;;;;;19.75;11.52;;;;;;;7.82;83.36;102666.03;5023299;28;20032;-85
2023/04/18 01:55:21;;;;;;;18.13;11.90;;;;;;;7.90;83.53;102659.69;5039142;28;20053;-87
2023/04/18 01:57:46;;;;;;;21.75;12.73;;;;;;;7.79;83.24;102670.28;5024514;28;20024;-86
2023/04/18 02:00:12;;;;;;;20.65;12.02;;;;;;;7.86;83.42;102673.47;5039369;28;20064;-86
2023/04/18 02:02:37;;;;;;;18.67;12.00;;;;;;;7.61;83.69;102668.47;5021489;28;20542;-86
2023/04/18 02:05:03;;;;;;;22.00;13.20;;;;;;;7.56;85.04;102672.19;5016363;28;20067;-86
2023/04/18 02:07:28;;;;;;;21.58;12.50;;;;;;;7.46;84.30;102680.78;5013071;28;20040;-86
2023/04/18 02:09:54;;;;;;;17.85;11.35;;;;;;;7.66;84.96;102671.16;5013352;28;20346;-87
2023/04/18 02:12:19;;;;;;;18.08;12.02;;;;;;;7.76;83.86;102684.00;5034214;28;20039;-87
2023/04/18 02:14:49;;;;;;;17.10;11.82;;;;;;;7.59;84.05;102666.00;5037393;28;20034;-86
2023/04/18 02:17:14;;;;;;;21.08;12.77;;;;;;;7.51;84.64;102669.53;5037431;28;20049;-87
2023/04/18 02:19:40;;;;;;;20.00;11.85;;;;;;;7.61;84.22;102674.03;5036354;28;20175;-86
2023/04/18 02:22:05;;;;;;;15.27;11.70;;;;;;;7.46;85.75;102667.69;5021847;28;20064;-86
2023/04/18 02:24:31;;;;;;;19.73;12.00;;;;;;;7.54;85.09;102669.72;5019602;28;20030;-87
2023/04/18 02:26:56;;;;;;;20.17;11.77;;;;;;;7.60;85.64;102680.78;5033135;28;20029;-86
2023/04/18 02:29:21;;;;;;;22.52;13.25;;;;;;;7.66;84.46;102682.31;5019339;28;20049;-86
2023/04/18 02:31:47;;;;;;;19.23;12.25;;;;;;;7.37;83.89;102671.53;5013854;28;20119;-86
2023/04/18 02:34:12;;;;;;;20.27;13.15;;;;;;;7.32;85.50;102672.47;5030127;28;20079;-86
2023/04/18 02:36:37;;;;;;;25.83;13.40;;;;;;;7.41;85.57;102678.94;5034717;28;20059;-86
2023/04/18 02:39:03;;;;;;;22.30;12.40;;;;;;;7.37;86.12;102672.34;5016179;28;20029;-86
2023/04/18 02:41:28;;;;;;;24.30;14.85;;;;;;;7.33;86.85;102671.31;5011938;28;20033;-86
2023/04/18 02:43:53;;;;;;;19.95;13.38;;;;;;;7.31;87.55;102676.38;5010496;28;20033;-86
2023/04/18 02:46:19;;;;;;;19.05;12.45;;;;;;;7.59;87.48;102676.31;5033272;28;20020;-86
2023/04/18 02:48:44;;;;;;;23.52;13.68;;;;;;;7.24;89.13;102684.34;5023580;28;20031;-87
2023/04/18 02:51:10;;;;;;;25.98;12.52;;;;;;;7.23;87.41;102675.16;5030593;28;20440;-86
2023/04/18 02:53:35;;;;;;;21.83;13.93;;;;;;;7.47;88.43;102674.91;5036959;28;20497;-86
2023/04/18 02:56:01;;;;;;;21.25;12.77;;;;;;;7.53;88.79;102673.66;5023590;28;20069;-86
2023/04/18 02:58:26;;;;;;;22.45;13.90;;;;;;;7.00;88.90;102671.47;5018249;28;20030;-86
2023/04/18 03:00:53;;;;;;;21.48;13.13;;;;;;;7.37;90.13;102675.13;5037673;28;20079;-86
2023/04/18 03:03:18;;;;;;;18.48;12.65;;;;;;;7.07;91.83;102684.97;5036486;28;20041;-87
2023/04/18 03:05:44;;;;;;;19.45;12.98;;;;;;;7.21;91.25;102673.81;5037023;28;20113;-86
2023/04/18 03:08:09;;;;;;;20.80;13.43;;;;;;;7.35;90.07;102666.25;5027536;28;20044;-86
2023/04/18 03:10:34;;;;;;;23.10;11.77;;;;;;;7.43;90.79;102670.28;5038826;28;20052;-87
2023/04/18 03:13:00;;;;;;;18.95;12.85;;;;;;;7.44;90.44;102663.56;5024043;28;20037;-86
2023/04/18 03:15:26;;;;;;;18.67;12.90;;;;;;;7.23;92.22;102680.72;5032961;28;20036;-87
2023/04/18 03:17:52;;;;;;;18.15;12.95;;;;;;;7.08;92.57;102672.69;5039697;28;20374;-87
2023/04/18 03:20:17;;;;;;;20.63;13.93;;;;;;;7.24;92.19;102687.13;5024165;28;20024;-86
2023/04/18 03:22:42;;;;;;;20.25;12.40;;;;;;;7.26;93.00;102673.72;5021325;28;20088;-87
2023/04/18 03:25:08;;;;;;;18.92;12.40;;;;;;;7.37;92.31;102680.69;4999618;28;20034;-86
2023/04/18 03:27:34;;;;;;;18.77;12.40;;;;;;;7.29;93.02;102678.66;5030996;28;20037;-86
2023/04/18 03:30:00;;;;;;;20.35;13.10;;;;;;;7.32;93.32;102683.59;5037647;28;20182;-87
2023/04/18 03:32:25;;;;;;;21.42;14.77;;;;;;;7.16;93.78;102676.72;5021313;28;20025;-87
2023/04/18 03:34:51;;;;;;;19.58;12.88;;;;;;;7.29;93.34;102679.50;5026324;28;20021;-87
2023/04/18 03:37:16;;;;;;;20.58;12.63;;;;;;;7.28;93.69;102675.03;5041960;28;20717;-87
2023/04/18 03:39:41;;;;;;;23.55;13.95;;;;;;;7.04;95.04;102680.00;5041882;28;20036;-87
2023/04/18 03:42:07;;;;;;;20.85;13.68;;;;;;;7.19;93.89;102684.44;5026913;28;20103;-87
2023/04/18 03:44:32;;;;;;;19.80;12.77;;;;;;;7.26;94.20;102673.72;5045021;28;20162;-87
2023/04/18 03:46:57;;;;;;;20.17;12.18;;;;;;;7.18;94.41;102677.22;5023242;28;20091;-87
2023/04/18 03:49:23;;;;;;;22.45;13.32;;;;;;;7.17;94.91;102687.53;5039406;28;20124;-86
2023/04/18 03:51:48;;;;;;;24.77;13.43;;;;;;;7.16;94.46;102682.28;5020576;28;20738;-87
2023/04/18 03:54:15;;;;;;;19.30;13.30;;;;;;;7.17;95.30;102681.97;5019531;28;20029;-87
2023/04/18 03:56:40;;;;;;;24.35;13.65;;;;;;;6.96;95.93;102689.91;5042692;28;20100;-87
2023/04/18 03:59:06;;;;;;;26.23;14.68;;;;;;;7.10;95.60;102685.19;5037822;28;20334;-87
2023/04/18 04:01:31;;;;;;;21.58;13.75;;;;;;;7.27;94.64;102692.91;5040402;28;20064;-87
2023/04/18 04:03:56;;;;;;;19.75;12.52;;;;;;;7.19;95.17;102693.63;5043096;28;20020;-86
2023/04/18 04:06:22;;;;;;;20.55;12.20;;;;;;;7.36;94.70;102701.34;5041736;28;20520;-87
2023/04/18 04:08:48;;;;;;;20.73;12.57;;;;;;;7.24;94.82;102698.25;5019154;28;20040;-87
2023/04/18 04:11:13;;;;;;;22.50;14.05;;;;;;;7.22;95.98;102703.31;5021943;28;20024;-87
2023/04/18 04:13:38;;;;;;;22.70;12.35;;;;;;;7.25;95.21;102709.09;5026542;28;20029;-87
2023/04/18 04:16:04;;;;;;;18.55;13.13;;;;;;;7.08;96.15;102708.88;5020429;28;20036;-87
2023/04/18 04:18:30;;;;;;;18.88;12.88;;;;;;;7.18;96.47;102700.31;5033747;28;20036;-87
2023/04/18 04:20:59;;;;;;;17.63;11.43;;;;;;;7.24;96.46;102703.84;5035676;28;20025;-87
2023/04/18 04:23:25;;;;;;;21.55;14.52;;;;;;;6.74;99.51;102696.19;5021108;28;20053;-86
2023/04/18 04:25:51;;;;;;;18.85;12.50;;;;;;;7.14;97.80;102704.84;5030940;28;20029;-87
2023/04/18 04:28:21;;;;;;;22.50;13.07;;;;;;;7.26;97.06;102698.78;5032384;28;20037;-87
2023/04/18 04:30:47;;;;;;;18.65;12.20;;;;;;;7.07;98.40;102696.91;5030760;28;20370;-87
2023/04/18 04:33:13;;;;;;;23.83;12.65;;;;;;;6.98;98.33;102698.78;5038297;28;20104;-87
2023/04/18 04:35:38;;;;;;;23.30;14.32;;;;;;;7.01;99.03;102694.56;5023931;28;20574;-86
2023/04/18 04:38:04;;;;;;;19.25;12.30;;;;;;;6.94;100.00;102706.09;5036559;28;20028;-87
2023/04/18 04:40:29;;;;;;;22.30;13.02;;;;;;;6.91;100.00;102703.91;5038432;28;20033;-86
2023/04/18 04:42:55;;;;;;;20.83;13.45;;;;;;;7.03;99.70;102714.56;5031426;28;20389;-87
2023/04/18 04:45:22;;;;;;;28.52;15.20;;;;;;;6.82;100.00;102703.81;5030898;28;20062;-87
2023/04/18 04:47:47;;;;;;;24.05;13.93;;;;;;;6.75;100.00;102702.59;5028746;28;20382;-86
2023/04/18 04:50:14;;;;;;;22.63;12.85;;;;;;;7.04;100.00;102697.56;5037549;28;20028;-86
2023/04/18 04:52:42;;;;;;;22.92;13.38;;;;;;;7.13;100.00;102709.59;5033739;28;20052;-87
2023/04/18 04:55:08;;;;;;;24.05;14.82;;;;;;;6.70;100.00;102712.69;5030060;28;20435;-86
2023/04/18 04:57:34;;;;;;;24.65;13.80;;;;;;;6.85;100.00;102713.50;5019009;28;20503;-86
2023/04/18 05:00:00;;;;;;;23.00;14.13;;;;;;;6.86;100.00;102715.16;5018196;28;20142;-87
2023/04/18 05:02:25;;;;;;;19.75;11.57;;;;;;;6.82;100.00;102714.13;5034477;28;20041;-87
2023/04/18 05:04:50;;;;;;;22.35;12.80;;;;;;;6.88;100.00;102710.94;5032963;28;20033;-87
2023/04/18 05:07:16;;;;;;;21.90;11.73;;;;;;;6.77;100.00;102717.00;5018699;28;20036;-86
2023/04/18 05:09:41;;;;;;;25.50;13.73;;;;;;;6.70;100.00;102723.81;5033259;28;20017;-87
2023/04/18 05:12:07;;;;;;;24.02;13.18;;;;;;;6.85;100.00;102719.91;5033503;28;20024;-86
2023/04/18 05:14:32;;;;;;;27.52;14.77;;;;;;;6.90;100.00;102728.16;5035006;28;20025;-87
2023/04/18 05:16:57;;;;;;;24.63;13.15;;;;;;;6.61;100.00;102720.06;5012615;28;20481;-86
2023/04/18 05:19:26;;;;;;;19.63;12.25;;;;;;;6.84;100.00;102720.22;5036818;28;20029;-87
2023/04/18 05:21:51;;;;;;;18.33;12.27;;;;;;;7.04;100.00;102714.25;5016947;28;20443;-87
2023/04/18 05:24:17;;;;;;;21.75;13.52;;;;;;;6.83;100.00;102715.78;5034845;28;20032;-87
2023/04/18 05:26:42;;;;;;;20.10;12.77;;;;;;;6.90;100.00;102719.00;5036596;28;20123;-87
2023/04/18 05:29:07;;;;;;;26.73;13.90;;;;;;;6.86;100.00;102720.75;5022806;28;20095;-87
2023/04/18 05:31:33;;;;;;;22.60;11.95;;;;;;;6.97;100.00;102726.94;5035332;28;20454;-87
2023/04/18 05:33:58;;;;;;;21.98;11.88;;;;;;;6.87;100.00;102711.25;5024723;28;20033;-87
2023/04/18 05:36:23;;;;;;;20.73;12.07;;;;;;;6.75;100.00;102713.72;5037736;28;20033;-87
2023/04/18 05:38:49;;;;;;;19.83;12.25;;;;;;;6.88;100.00;102721.25;5029042;28;20029;-87
2023/04/18 05:41:15;;;;;;;18.70;12.30;;;;;;;7.05;100.00;102724.25;5038845;28;20025;-87
2023/04/18 05:43:40;;;;;;;23.45;13.13;;;;;;;7.06;100.00;102727.84;5043865;28;20135;-85
2023/04/18 05:46:05;;;;;;;20.23;12.57;;;;;;;7.11;100.00;102734.16;5036182;28;20052;-85
2023/04/18 05:48:31;;;;;;;20.85;11.80;;;;;;;7.41;100.00;102731.06;5036314;28;20081;-85
2023/04/18 05:50:56;;;;;;;21.55;13.02;;;;;;;7.35;100.00;102737.88;5023902;28;20040;-85
2023/04/18 05:53:22;;;;;;;23.25;13.35;;;;;;;7.05;100.00;102743.75;5039031;28;20079;-85
2023/04/18 05:55:47;;;;;;;23.80;12.43;;;;;;;7.46;100.00;102745.72;5002223;28;20028;-85
2023/04/18 05:58:14;;;;;;;23.30;13.98;;;;;;;7.22;100.00;102736.75;5037504;28;20018;-85
2023/04/18 06:00:41;;;;;;;29.52;13.55;;;;;;;7.49;100.00;102733.94;5022892;28;20027;-85
2023/04/18 06:03:06;;;;;;;22.00;13.75;;;;;;;7.39;100.00;102739.72;5017637;28;20029;-85
2023/04/18 06:05:31;;;;;;;25.25;14.20;;;;;;;7.13;100.00;102747.78;5014302;28;20032;-85
2023/04/18 06:07:57;;;;;;;23.55;14.13;;;;;;;7.22;100.00;102745.09;5029442;28;20673;-85
2023/04/18 06:10:22;;;;;;;25.60;14.07;;;;;;;7.88;100.00;102752.00;5015233;28;21718;-83
2023/04/18 06:12:47;;;;;;;26.42;14.27;;;;;;;7.48;100.00;102749.03;5017635;28;20043;-84
2023/04/18 06:15:13;;;;;;;28.55;14.30;;;;;;;7.44;100.00;102756.34;5027221;28;20032;-84
2023/04/18 06:17:38;;;;;;;22.05;13.57;;;;;;;7.32;100.00;102747.69;5013095;28;20025;-83
2023/04/18 06:20:05;;;;;;;26.88;13.88;;;;;;;7.06;100.00;102742.63;5021759;28;20718;-84
2023/04/18 06:22:30;;;;;;;24.85;14.65;;;;;;;7.12;100.00;102751.69;5015942;28;20029;-82
2023/04/18 06:24:56;;;;;;;24.02;14.13;;;;;;;7.17;100.00;102767.47;5015424;28;20047;-82
2023/04/18 06:27:21;;;;;;;28.33;14.85;;;;;;;7.08;100.00;102757.06;5027311;28;20064;-82
2023/04/18 06:29:46;;;;;;;25.48;13.82;;;;;;;7.09;100.00;102757.88;5018036;28;20053;-84
2023/04/18 06:32:12;;;;;;;26.63;13.27;;;;;;;7.26;100.00;102758.09;5034747;28;20120;-84
2023/04/18 06:34:37;;;;;;;27.95;16.05;;;;;;;7.06;100.00;102762.13;5036311;28;20036;-84
2023/04/18 06:37:03;;;;;;;32.42;16.27;;;;;;;7.11;100.00;102762.00;5034591;28;20099;-83
2023/04/18 06:39:29;;;;;;;26.08;13.85;;;;;;;7.12;100.00;102763.63;5017741;28;20072;-84
2023/04/18 06:41:55;;;;;;;25.30;14.57;;;;;;;7.16;100.00;102774.19;5041916;28;20058;-83
2023/04/18 06:44:21;;;;;;;25.13;14.85;;;;;;;7.18;100.00;102766.34;5023164;28;20029;-83
2023/04/18 06:46:46;;;;;;;27.77;15.13;;;;;;;7.20;100.00;102766.88;5034727;28;21359;-83
2023/04/18 06:49:11;;;;;;;27.30;14.77;;;;;;;7.37;100.00;102769.03;5011603;28;20028;-84
2023/04/18 06:51:37;;;;;;;31.75;16.42;;;;;;;7.42;100.00;102764.19;5024564;28;20431;-83
2023/04/18 06:54:02;;;;;;;27.40;15.13;;;;;;;7.48;100.00;102764.88;5021880;28;20028;-84
2023/04/18 06:56:28;;;;;;;23.27;14.63;;;;;;;7.67;100.00;102761.97;5018266;28;20059;-84
2023/04/18 06:58:53;;;;;;;27.05;14.38;;;;;;;7.79;100.00;102762.28;5037085;28;20386;-83
2023/04/18 07:01:19;;;;;;;26.67;14.98;;;;;;;7.69;100.00;102779.22;5030416;28;20025;-83
2023/04/18 07:03:44;;;;;;;26.35;16.20;;;;;;;7.52;100.00;102768.72;5038195;28;20055;-83
2023/04/18 07:06:10;;;;;;;28.52;15.68;;;;;;;7.61;100.00;102768.78;5035417;28;20071;-82
2023/04/18 07:08:35;;;;;;;29.92;15.00;;;;;;;7.70;100.00;102770.56;5041302;28;20048;-83
2023/04/18 07:11:01;;;;;;;32.13;15.07;;;;;;;7.67;100.00;102757.25;5026695;28;20035;-83
2023/04/18 07:13:26;;;;;;;30.88;16.10;;;;;;;7.68;100.00;102769.22;5038853;28;20428;-84
2023/04/18 07:15:52;;;;;;;25.17;13.88;;;;;;;7.71;100.00;102763.81;5020969;28;20079;-84
2023/04/18 07:18:17;;;;;;;29.15;16.17;;;;;;;7.92;100.00;102772.56;5012825;28;20056;-83
2023/04/18 07:20:42;;;;;;;25.55;14.63;;;;;;;8.04;100.00;102765.63;5032408;28;20025;-83
2023/04/18 07:23:12;;;;;;;26.33;15.43;;;;;;;7.97;100.00;102768.00;5041392;28;20393;-84
2023/04/18 07:25:37;;;;;;;25.75;13.98;;;;;;;7.88;100.00;102757.59;5025422;28;20060;-83
2023/04/18 07:28:03;;;;;;;23.08;14.43;;;;;;;8.01;100.00;102769.88;5047289;28;20103;-83
2023/04/18 07:30:28;;;;;;;24.05;14.02;;;;;;;8.02;100.00;102765.13;5023894;28;20040;-83
2023/04/18 07:32:53;;;;;;;26.95;14.95;;;;;;;7.90;100.00;102763.69;5038628;28;20029;-83
2023/04/18 07:35:19;;;;;;;25.40;14.45;;;;;;;7.97;100.00;102765.22;5033470;28;20029;-83
2023/04/18 07:37:45;;;;;;;26.30;14.00;;;;;;;8.03;100.00;102759.25;5034046;28;20021;-83
2023/04/18 07:40:10;;;;;;;23.30;15.02;;;;;;;8.12;100.00;102770.47;5043850;28;20029;-83
2023/04/18 07:42:36;;;;;;;25.67;15.40;;;;;;;8.17;100.00;102773.13;5032617;28;20032;-83
2023/04/18 07:45:01;;;;;;;29.25;16.38;;;;;;;8.25;100.00;102777.13;5046648;28;20029;-83
2023/04/18 07:47:27;;;;;;;25.05;14.27;;;;;;;8.31;100.00;102787.84;5031373;28;20075;-82
2023/04/18 07:49:53;;;;;;;26.55;15.20;;;;;;;8.38;100.00;102793.00;5025426;28;20025;-83
2023/04/18 07:52:18;;;;;;;25.27;15.00;;;;;;;8.18;100.00;102783.16;5048524;28;20029;-83
2023/04/18 07:54:43;;;;;;;25.63;14.88;;;;;;;8.22;100.00;102777.75;5035450;28;20026;-82
2023/04/18 07:57:09;;;;;;;29.60;15.57;;;;;;;8.38;100.00;102781.81;5027792;28;20109;-82
2023/04/18 07:59:35;;;;;;;28.10;15.23;;;;;;;8.53;100.00;102786.22;5029833;28;20020;-83
2023/04/18 08:02:01;;;;;;;29.70;15.45;;;;;;;8.58;100.00;102797.28;5042570;28;20029;-83
2023/04/18 08:04:27;;;;;;;28.85;15.65;;;;;;;8.58;100.00;102790.84;5039370;28;20385;-83
2023/04/18 08:06:52;;;;;;;24.80;15.27;;;;;;;8.54;100.00;102801.84;5041828;28;20109;-82
2023/04/18 08:09:19;;;;;;;27.15;14.68;;;;;;;8.70;100.00;102794.72;5021702;28;20041;-82
2023/04/18 08:11:45;;;;;;;20.75;13.25;;;;;;;8.94;100.00;102788.00;5039446;28;20170;-83
2023/04/18 08:14:10;;;;;;;21.88;13.93;;;;;;;9.07;100.00;102792.66;5038975;28;20029;-82
2023/04/18 08:16:36;;;;;;;23.05;15.10;;;;;;;9.26;98.84;102794.38;5040675;28;20377;-82
2023/04/18 08:19:02;;;;;;;25.92;14.35;;;;;;;9.15;99.86;102791.06;5028148;28;20041;-82
2023/04/18 08:21:27;;;;;;;21.38;13.10;;;;;;;9.09;99.63;102781.16;5038046;28;20030;-81
2023/04/18 08:23:53;;;;;;;27.70;15.18;;;;;;;9.11;98.75;102787.25;5022680;28;20028;-82
2023/04/18 08:26:18;;;;;;;23.45;14.20;;;;;;;9.21;100.00;102775.78;5040130;28;20037;-82
2023/04/18 08:28:44;;;;;;;23.17;13.48;;;;;;;9.29;99.69;102776.97;5032017;28;20041;-83
2023/04/18 08:31:13;;;;;;;22.90;13.15;;;;;;;9.01;99.40;102781.94;5023234;28;20029;-82
2023/04/18 08:33:39;;;;;;;22.10;13.07;;;;;;;8.88;100.00;102783.69;5022862;28;20043;-83
2023/04/18 08:36:05;;;;;;;22.98;14.25;;;;;;;9.00;99.56;102802.63;5027310;28;20032;-82
2023/04/18 08:38:30;;;;;;;27.92;15.57;;;;;;;9.28;99.90;102795.72;5028973;28;20025;-82
2023/04/18 08:40:56;;;;;;;22.20;13.93;;;;;;;9.42;99.24;102803.97;5043505;28;20034;-82
2023/04/18 08:43:24;;;;;;;31.95;14.80;;;;;;;9.42;99.02;102809.56;5044577;28;20451;-82
2023/04/18 08:45:51;;;;;;;21.95;14.15;;;;;;;9.32;97.75;102805.09;5019377;28;20520;-82
2023/04/18 08:48:17;;;;;;;23.35;13.82;;;;;;;9.30;97.44;102812.16;5030039;28;20132;-83
2023/04/18 08:50:44;;;;;;;27.27;15.60;;;;;;;9.22;99.28;102810.16;5045609;28;20864;-83
2023/04/18 08:53:10;;;;;;;23.00;14.48;;;;;;;9.12;100.00;102805.66;5026183;28;20039;-83
2023/04/18 08:55:36;;;;;;;24.67;14.98;;;;;;;9.26;100.00;102802.78;5048054;28;20032;-82
2023/04/18 08:58:05;;;;;;;26.63;15.27;;;;;;;9.33;100.00;102800.31;5038984;28;20112;-83
2023/04/18 09:00:31;;;;;;;23.60;14.50;;;;;;;9.34;98.92;102802.81;5026979;28;20496;-82
2023/04/18 09:02:57;;;;;;;24.35;14.15;;;;;;;9.47;97.26;102806.63;5022832;28;20031;-83
2023/04/18 09:05:25;;;;;;;23.83;15.57;;;;;;;9.42;97.32;102806.75;5026544;28;20024;-83
2023/04/18 09:07:53;;;;;;;21.42;13.93;;;;;;;9.61;98.04;102805.69;5045458;28;20037;-83
2023/04/18 09:10:31;;;;;;;23.98;14.65;;;;;;;9.66;97.51;102792.38;5021303;28;20486;-82
2023/04/18 09:12:57;;;;;;;24.80;15.07;;;;;;;9.72;96.63;102801.47;5033769;28;20024;-82
2023/04/18 09:15:28;;;;;;;25.70;14.77;;;;;;;9.59;95.53;102802.38;5039301;28;20033;-82
2023/04/18 09:17:56;;;;;;;28.08;14.70;;;;;;;9.72;95.58;102801.47;5025266;28;20033;-82
2023/04/18 09:20:33;;;;;;;31.38;15.77;;;;;;;9.86;96.11;102796.53;5049530;28;20024;-83
2023/04/18 09:23:03;;;;;;;27.52;17.35;;;;;;;9.94;95.67;102801.31;5043342;28;20037;-83
2023/04/18 09:25:36;;;;;;;28.92;16.80;;;;;;;10.07;94.09;102801.50;5043863;28;20701;-82
2023/04/18 09:28:22;;;;;;;28.77;15.05;;;;;;;9.79;94.50;102792.59;5039950;28;21182;-82
2023/04/18 09:30:53;;;;;;;25.52;15.88;;;;;;;9.76;96.09;102799.63;5043380;28;20068;-82
2023/04/18 09:33:33;;;;;;;31.05;16.20;;;;;;;9.60;96.69;102804.06;5040697;28;20044;-83
2023/04/18 09:36:22;;;;;;;31.92;17.17;;;;;;;9.44;96.66;102796.09;5026183;28;20528;-83
2023/04/18 09:38:50;;;;;;;26.52;17.40;;;;;;;9.49;96.65;102798.75;5028269;28;20027;-83
2023/04/18 09:41:16;;;;;;;24.85;16.17;;;;;;;9.62;96.94;102799.78;5031105;28;20037;-83
2023/04/18 09:43:43;;;;;;;29.10;17.33;;;;;;;9.64;97.11;102805.06;5042238;28;20039;-82
2023/04/18 09:46:08;;;;;;;32.67;18.13;;;;;;;9.68;97.39;102792.88;5037527;28;20771;-82
2023/04/18 09:48:34;;;;;;;29.85;17.50;;;;;;;9.80;96.80;102781.06;5044825;28;20029;-83
2023/04/18 09:51:12;;;;;;;28.67;18.00;;;;;;;10.06;96.21;102785.88;5030567;28;20036;-83
2023/04/18 09:53:40;;;;;;;28.88;17.27;;;;;;;10.05;94.72;102770.22;5045324;28;20213;-83
2023/04/18 09:56:14;;;;;;;29.77;16.67;;;;;;;10.07;95.96;102781.91;5041905;28;20040;-83
2023/04/18 09:58:41;;;;;;;25.88;15.95;;;;;;;10.16;95.07;102774.34;5045586;28;20024;-83
2023/04/18 10:01:06;;;;;;;26.40;15.85;;;;;;;10.24;95.05;102784.72;5037091;28;20036;-83
2023/04/18 10:03:36;;;;;;;30.85;17.77;;;;;;;10.08;95.60;102764.81;5033471;28;20181;-83
2023/04/18 10:06:02;;;;;;;30.40;17.05;;;;;;;10.23;95.90;102787.88;5039322;28;20037;-83
2023/04/18 10:08:28;;;;;;;31.38;17.25;;;;;;;10.03;95.25;102778.13;5039397;28;20377;-83
2023/04/18 10:10:55;;;;;;;26.75;17.08;;;;;;;10.06;95.75;102783.09;5017917;28;20036;-82
2023/04/18 10:13:22;;;;;;;29.55;17.27;;;;;;;10.30;94.45;102777.03;5034877;28;20037;-83
2023/04/18 10:15:48;;;;;;;31.38;17.08;;;;;;;10.39;94.91;102766.63;5036399;28;20032;-84
2023/04/18 10:18:17;;;;;;;34.92;20.38;;;;;;;10.80;93.03;102773.66;5041209;28;20036;-84
2023/04/18 10:20:43;;;;;;;27.90;17.50;;;;;;;10.51;93.89;102763.16;5040322;28;20040;-83
2023/04/18 10:23:27;;;;;;;31.02;18.25;;;;;;;10.74;93.50;102777.78;5038444;28;20503;-84
2023/04/18 10:25:52;;;;;;;32.70;20.63;;;;;;;10.72;92.39;102766.09;5037182;28;20040;-84
2023/04/18 10:28:19;;;;;;;30.23;19.95;;;;;;;10.92;93.17;102764.56;5018105;28;20037;-84
2023/04/18 10:30:45;;;;;;;29.90;17.02;;;;;;;11.43;89.91;102775.91;5036405;28;20421;-84
2023/04/18 10:33:32;;;;;;;27.25;16.40;;;;;;;11.70;88.12;102783.00;5019364;28;20028;-84
2023/04/18 10:36:22;;;;;;;29.70;18.50;;;;;;;11.39;87.68;102764.53;5032212;28;20033;-84
2023/04/18 10:39:21;;;;;;;30.65;16.98;;;;;;;11.23;90.10;102786.69;5019263;28;20239;-84
2023/04/18 10:41:50;;;;;;;30.48;17.65;;;;;;;11.04;90.91;102773.09;5020051;28;20488;-84
2023/04/18 10:44:18;;;;;;;29.73;17.23;;;;;;;11.09;91.92;102770.13;5034682;28;20025;-84
2023/04/18 10:46:52;;;;;;;29.60;18.25;;;;;;;11.17;92.24;102777.66;5037877;28;20032;-85
2023/04/18 10:49:22;;;;;;;27.45;16.85;;;;;;;11.42;90.66;102763.84;5041015;28;20037;-85
2023/04/18 10:51:53;;;;;;;29.63;17.85;;;;;;;11.22;90.42;102770.25;5020179;28;20532;-84
2023/04/18 10:54:30;;;;;;;27.48;18.00;;;;;;;11.08;91.39;102757.25;5037652;28;20024;-84
2023/04/18 10:57:02;;;;;;;27.38;17.65;;;;;;;11.14;92.07;102767.13;5023367;28;20397;-84
2023/04/18 10:59:29;;;;;;;30.85;18.25;;;;;;;10.99;92.35;102765.69;5041827;28;20102;-84
2023/04/18 11:02:23;;;;;;;32.03;19.73;;;;;;;11.33;90.98;102771.50;5020859;28;20041;-84
2023/04/18 11:04:50;;;;;;;37.63;18.77;;;;;;;11.70;89.46;102771.78;5038697;28;20056;-84
2023/04/18 11:07:15;;;;;;;27.20;18.23;;;;;;;12.25;86.59;102755.88;5024360;28;20025;-84
2023/04/18 11:09:49;;;;;;;28.50;16.75;;;;;;;12.30;84.72;102764.94;5047249;28;20033;-84
2023/04/18 11:12:15;;;;;;;29.67;16.20;;;;;;;12.10;83.59;102757.31;5025984;28;20481;-85